Time;durP1;ratioP1;P1;durP2;ratioP2;P2;SDS_P1;SDS_P2;PMS_P1;PMS_P2;Temp;Humidity;BMP_temperature;BMP_pressure;BME280_temperature;BME280_humidity;BME280_pressure;Samples;Min_cycle;Max_cycle;Signal;HPM_P1;HPM_P2
2020/12/27 00:01:42;;;;;;;6.65;4.35;;;0.00;99.90;;;;;;5023946;28;20032;-72
2020/12/27 00:04:08;;;;;;;4.78;3.53;;;-0.10;99.90;;;;;;5027088;28;20026;-73
2020/12/27 00:06:34;;;;;;;8.48;4.63;;;-0.10;99.90;;;;;;5030283;28;20040;-74
2020/12/27 00:09:00;;;;;;;6.53;3.97;;;-0.10;99.90;;;;;;5027106;28;20029;-74
2020/12/27 00:11:26;;;;;;;8.27;5.53;;;0.00;99.90;;;;;;5039657;28;20026;-73
2020/12/27 00:13:51;;;;;;;9.73;4.18;;;0.00;99.90;;;;;;5035817;28;20053;-74
2020/12/27 00:16:26;;;;;;;6.93;4.45;;;-0.10;99.90;;;;;;5039325;28;20036;-74
2020/12/27 00:18:52;;;;;;;40.30;22.08;;;0.00;99.90;;;;;;5016919;28;20041;-74
2020/12/27 00:21:18;;;;;;;8.77;7.13;;;0.00;99.90;;;;;;5022512;28;20024;-74
2020/12/27 00:23:44;;;;;;;5.80;4.28;;;0.00;99.90;;;;;;5027598;28;20101;-74
2020/12/27 00:26:13;;;;;;;7.90;4.43;;;-0.10;99.90;;;;;;5054105;28;20010;-73
2020/12/27 00:28:41;;;;;;;5.35;4.10;;;-0.10;99.90;;;;;;5052890;28;20037;-73
2020/12/27 00:31:07;;;;;;;4.38;3.58;;;-0.20;99.90;;;;;;5027925;28;20013;-73
2020/12/27 00:33:33;;;;;;;8.75;4.32;;;-0.20;99.90;;;;;;5032996;28;20043;-76
2020/12/27 00:35:59;;;;;;;6.45;3.85;;;-0.20;99.90;;;;;;5034881;28;20081;-74
2020/12/27 00:38:25;;;;;;;6.45;3.90;;;-0.20;99.90;;;;;;5041667;28;20043;-73
2020/12/27 00:40:51;;;;;;;5.45;3.63;;;-0.20;99.90;;;;;;5024593;28;20049;-74
2020/12/27 00:43:17;;;;;;;7.30;3.78;;;-0.10;99.90;;;;;;5036957;28;20488;-75
2020/12/27 00:45:42;;;;;;;5.80;3.45;;;-0.10;99.90;;;;;;5035202;28;20078;-73
2020/12/27 00:48:08;;;;;;;6.15;3.70;;;0.00;99.90;;;;;;5026498;28;20029;-73
2020/12/27 00:50:33;;;;;;;5.63;3.85;;;-0.10;99.90;;;;;;5021522;28;20401;-74
2020/12/27 00:52:59;;;;;;;5.28;3.50;;;-0.10;99.90;;;;;;5013654;28;20025;-73
2020/12/27 00:55:25;;;;;;;4.15;3.78;;;-0.10;99.90;;;;;;5033535;28;20581;-73
2020/12/27 00:57:50;;;;;;;6.38;3.25;;;-0.20;99.90;;;;;;5028040;28;20025;-75
2020/12/27 01:00:16;;;;;;;8.02;4.03;;;-0.30;99.90;;;;;;5011544;28;20018;-73
2020/12/27 01:02:41;;;;;;;5.63;4.10;;;-0.30;99.90;;;;;;5037389;28;20014;-73
2020/12/27 01:05:08;;;;;;;4.90;3.78;;;-0.30;99.90;;;;;;5037437;28;20036;-72
2020/12/27 01:07:33;;;;;;;6.47;4.70;;;-0.30;99.90;;;;;;5034362;28;20086;-73
2020/12/27 01:09:59;;;;;;;5.43;3.78;;;-0.30;99.90;;;;;;5027214;28;20069;-73
2020/12/27 01:12:24;;;;;;;6.13;4.57;;;-0.30;99.90;;;;;;5027125;28;20095;-73
2020/12/27 01:14:50;;;;;;;5.70;3.90;;;-0.30;99.90;;;;;;5034133;28;20548;-73
2020/12/27 01:17:15;;;;;;;4.80;3.58;;;-0.30;99.90;;;;;;5034543;28;20029;-73
2020/12/27 01:19:41;;;;;;;5.03;3.63;;;-0.30;99.90;;;;;;5031273;28;20034;-73
2020/12/27 01:22:06;;;;;;;9.93;3.47;;;-0.30;99.90;;;;;;5029537;28;20144;-73
2020/12/27 01:24:32;;;;;;;6.43;4.07;;;-0.40;99.90;;;;;;5022058;28;20108;-73
2020/12/27 01:26:57;;;;;;;6.13;4.28;;;-0.40;99.90;;;;;;5029401;28;20021;-72
2020/12/27 01:29:23;;;;;;;5.20;3.95;;;-0.30;99.90;;;;;;5038635;28;20022;-73
2020/12/27 01:31:49;;;;;;;5.05;4.47;;;-0.30;99.90;;;;;;5039379;28;20044;-73
2020/12/27 01:34:14;;;;;;;5.70;4.35;;;-0.40;99.90;;;;;;5038254;28;20435;-73
2020/12/27 01:36:41;;;;;;;5.30;3.88;;;-0.40;99.90;;;;;;5008680;28;20034;-73
2020/12/27 01:39:09;;;;;;;7.30;4.75;;;-0.40;99.90;;;;;;5035956;28;20025;-73
2020/12/27 01:41:36;;;;;;;5.93;4.28;;;-0.40;99.90;;;;;;5016879;28;20089;-74
2020/12/27 01:44:12;;;;;;;7.05;4.72;;;-0.30;99.90;;;;;;5011748;28;20436;-72
2020/12/27 01:46:40;;;;;;;7.10;4.68;;;-0.30;99.90;;;;;;5039184;28;20029;-73
2020/12/27 01:49:07;;;;;;;4.97;4.13;;;-0.30;99.90;;;;;;5029322;28;20064;-73
2020/12/27 01:51:33;;;;;;;5.20;3.95;;;-0.40;99.90;;;;;;5023033;28;20389;-73
2020/12/27 01:54:00;;;;;;;6.47;4.57;;;-0.40;99.90;;;;;;5037463;28;20036;-73
2020/12/27 01:56:33;;;;;;;6.22;4.25;;;-0.30;99.90;;;;;;5038921;28;20029;-72
2020/12/27 01:59:03;;;;;;;5.40;4.53;;;-0.30;99.90;;;;;;5003389;28;20026;-73
2020/12/27 02:01:31;;;;;;;4.65;4.18;;;-0.30;99.90;;;;;;5038127;28;20362;-73
2020/12/27 02:03:58;;;;;;;6.97;4.22;;;-0.30;99.90;;;;;;5021586;28;20041;-73
2020/12/27 02:06:24;;;;;;;6.15;4.88;;;-0.20;99.90;;;;;;5021190;28;20113;-73
2020/12/27 02:08:50;;;;;;;6.82;4.97;;;-0.20;99.90;;;;;;5039970;28;20321;-73
2020/12/27 02:11:19;;;;;;;5.30;4.53;;;-0.30;99.90;;;;;;5039789;28;20018;-73
2020/12/27 02:13:52;;;;;;;6.18;4.80;;;-0.30;99.90;;;;;;5020736;28;20033;-74
2020/12/27 02:16:25;;;;;;;5.50;4.65;;;-0.30;99.90;;;;;;5029874;28;20033;-72
2020/12/27 02:18:55;;;;;;;8.15;4.53;;;-0.30;99.90;;;;;;5041364;28;20021;-73
2020/12/27 02:21:22;;;;;;;4.93;4.30;;;-0.30;99.90;;;;;;5043432;28;20018;-74
2020/12/27 02:23:47;;;;;;;6.90;4.70;;;-0.30;99.90;;;;;;5051783;28;20024;-75
2020/12/27 02:26:13;;;;;;;6.82;4.22;;;-0.30;99.90;;;;;;5048812;28;20033;-74
2020/12/27 02:28:39;;;;;;;6.40;3.80;;;-0.30;99.90;;;;;;5030993;28;20029;-75
2020/12/27 02:31:04;;;;;;;4.88;4.07;;;-0.20;99.90;;;;;;5043072;28;20029;-73
2020/12/27 02:33:30;;;;;;;5.10;3.85;;;-0.20;99.90;;;;;;5036393;28;20563;-73
2020/12/27 02:35:56;;;;;;;5.63;3.80;;;-0.20;99.90;;;;;;5010611;28;20044;-72
2020/12/27 02:38:22;;;;;;;5.07;3.97;;;-0.20;99.90;;;;;;5046108;28;20029;-74
2020/12/27 02:40:48;;;;;;;4.95;3.30;;;-0.30;99.90;;;;;;5042649;28;20028;-73
2020/12/27 02:43:18;;;;;;;7.13;4.43;;;-0.30;99.90;;;;;;5022635;28;20021;-73
2020/12/27 02:45:45;;;;;;;5.97;4.25;;;-0.20;99.90;;;;;;5025001;28;20424;-72
2020/12/27 02:48:10;;;;;;;4.50;3.92;;;-0.30;99.90;;;;;;5042130;28;20109;-73
2020/12/27 02:50:36;;;;;;;6.75;3.78;;;-0.30;99.90;;;;;;5039992;28;20116;-75
2020/12/27 02:53:03;;;;;;;5.45;4.03;;;-0.30;99.90;;;;;;5042080;28;20021;-72
2020/12/27 02:55:29;;;;;;;8.70;4.18;;;-0.40;99.90;;;;;;5022399;28;20026;-73
2020/12/27 02:57:55;;;;;;;6.65;4.63;;;-0.40;99.90;;;;;;5041392;28;20065;-72
2020/12/27 03:00:21;;;;;;;6.53;3.97;;;-0.40;99.90;;;;;;5045512;28;20056;-73
2020/12/27 03:02:47;;;;;;;7.07;4.68;;;-0.30;99.90;;;;;;5042084;28;20049;-74
2020/12/27 03:05:13;;;;;;;5.35;4.82;;;-0.30;99.90;;;;;;5041256;28;20021;-74
2020/12/27 03:07:38;;;;;;;6.57;5.22;;;-0.30;99.90;;;;;;5035269;28;20092;-73
2020/12/27 03:10:04;;;;;;;6.80;4.75;;;-0.30;99.90;;;;;;5037099;28;20520;-75
2020/12/27 03:12:30;;;;;;;11.73;6.88;;;-0.50;99.90;;;;;;5019482;28;20069;-73
2020/12/27 03:14:55;;;;;;;8.73;6.00;;;-0.50;99.90;;;;;;5038066;28;20391;-74
2020/12/27 03:17:21;;;;;;;6.40;5.32;;;-0.70;99.90;;;;;;5037414;28;20116;-74
2020/12/27 03:19:46;;;;;;;8.20;5.53;;;-0.70;99.90;;;;;;5037149;28;20113;-74
2020/12/27 03:22:12;;;;;;;10.38;6.20;;;-0.80;99.90;;;;;;5036723;28;20074;-73
2020/12/27 03:24:38;;;;;;;6.45;4.95;;;-0.80;99.90;;;;;;5036181;28;20073;-73
2020/12/27 03:27:03;;;;;;;6.78;5.18;;;-0.70;99.90;;;;;;5019319;28;20041;-73
2020/12/27 03:29:29;;;;;;;6.45;5.25;;;-0.70;99.90;;;;;;5037625;28;20374;-73
2020/12/27 03:31:54;;;;;;;7.35;5.15;;;-0.80;99.90;;;;;;5040580;28;20483;-72
2020/12/27 03:34:20;;;;;;;6.40;5.20;;;-0.90;99.90;;;;;;5042070;28;20052;-72
2020/12/27 03:36:47;;;;;;;6.40;5.35;;;-0.90;99.90;;;;;;5040186;28;20033;-72
2020/12/27 03:39:13;;;;;;;6.97;4.72;;;-1.00;99.90;;;;;;5040097;28;20022;-73
2020/12/27 03:41:39;;;;;;;5.50;4.90;;;-0.90;99.90;;;;;;5039781;28;20508;-73
2020/12/27 03:44:04;;;;;;;5.63;4.97;;;-0.90;99.90;;;;;;5039427;28;20025;-72
2020/12/27 03:46:30;;;;;;;9.27;3.88;;;-0.90;99.90;;;;;;5039406;28;20099;-72
2020/12/27 03:48:56;;;;;;;6.70;4.72;;;-0.80;99.90;;;;;;5037169;28;20032;-73
2020/12/27 03:51:22;;;;;;;5.97;4.95;;;-0.70;99.90;;;;;;5035291;28;20474;-72
2020/12/27 03:53:48;;;;;;;6.15;5.50;;;-0.70;99.90;;;;;;5035653;28;20060;-73
2020/12/27 03:56:14;;;;;;;6.13;4.82;;;-0.70;99.90;;;;;;5036564;28;20029;-74
2020/12/27 03:58:40;;;;;;;8.88;6.22;;;-0.60;99.90;;;;;;5036572;28;20064;-73
2020/12/27 04:01:05;;;;;;;8.20;6.18;;;-0.80;99.90;;;;;;5018221;28;20026;-73
2020/12/27 04:03:31;;;;;;;7.72;5.90;;;-0.80;99.90;;;;;;5036040;28;20533;-75
2020/12/27 04:05:56;;;;;;;6.18;5.57;;;-1.00;99.90;;;;;;5036579;28;20025;-75
2020/12/27 04:08:22;;;;;;;8.80;6.35;;;-1.00;99.90;;;;;;5035677;28;20528;-74
2020/12/27 04:10:47;;;;;;;9.05;6.20;;;-1.00;99.90;;;;;;5036194;28;20500;-74
2020/12/27 04:13:13;;;;;;;9.60;5.50;;;-1.00;99.90;;;;;;5035369;28;20600;-74
2020/12/27 04:15:39;;;;;;;6.70;6.03;;;-1.10;99.90;;;;;;5017420;28;20575;-74
2020/12/27 04:18:04;;;;;;;7.82;5.03;;;-1.10;99.90;;;;;;5033433;28;20485;-75
2020/12/27 04:20:30;;;;;;;7.60;5.35;;;-1.10;99.90;;;;;;5019956;28;20073;-74
2020/12/27 04:22:55;;;;;;;6.95;4.90;;;-1.10;99.90;;;;;;5029762;28;20068;-74
2020/12/27 04:25:21;;;;;;;8.02;4.53;;;-1.00;99.90;;;;;;5023274;28;20021;-74
2020/12/27 04:27:47;;;;;;;5.30;4.13;;;-0.90;99.90;;;;;;5029885;28;20030;-74
2020/12/27 04:30:12;;;;;;;6.38;5.40;;;-0.80;99.90;;;;;;5026607;28;20033;-75
2020/12/27 04:32:38;;;;;;;4.85;4.22;;;-0.80;99.90;;;;;;5046489;28;20081;-74
2020/12/27 04:35:04;;;;;;;5.53;4.38;;;-0.70;99.90;;;;;;5047812;28;20045;-74
2020/12/27 04:37:30;;;;;;;7.85;5.07;;;-0.70;99.90;;;;;;5049634;28;20039;-75
2020/12/27 04:39:56;;;;;;;5.10;4.45;;;-0.70;99.90;;;;;;5051690;28;20014;-74
2020/12/27 04:42:22;;;;;;;6.22;4.15;;;-0.80;99.90;;;;;;5051845;28;20026;-74
2020/12/27 04:44:49;;;;;;;8.48;4.50;;;-0.80;99.90;;;;;;5033716;28;20097;-74
2020/12/27 04:47:15;;;;;;;5.93;4.20;;;-0.80;99.90;;;;;;5032481;28;20022;-75
2020/12/27 04:49:42;;;;;;;5.05;4.22;;;-0.80;99.90;;;;;;5028963;28;20040;-75
2020/12/27 04:52:11;;;;;;;7.47;4.32;;;-0.70;99.90;;;;;;5045297;28;20026;-76
2020/12/27 04:54:37;;;;;;;5.90;4.63;;;-0.70;99.90;;;;;;5028788;28;20095;-75
2020/12/27 04:57:03;;;;;;;7.85;4.55;;;-0.70;99.90;;;;;;5046071;28;20030;-75
2020/12/27 04:59:29;;;;;;;6.68;5.03;;;-0.70;99.90;;;;;;5045734;28;20087;-75
2020/12/27 05:01:55;;;;;;;6.53;4.47;;;-0.80;99.90;;;;;;5042926;28;20104;-74
2020/12/27 05:04:26;;;;;;;7.47;5.57;;;-0.90;99.90;;;;;;5043854;28;20018;-74
2020/12/27 05:06:54;;;;;;;;;;;-0.80;99.90;;;;;;5044149;28;20040;-74
2020/12/27 05:09:27;;;;;;;6.88;4.93;;;-0.90;99.90;;;;;;5043404;28;19975;-75
2020/12/27 05:11:54;;;;;;;8.80;4.95;;;-0.90;99.90;;;;;;5043802;28;20615;-74
2020/12/27 05:14:24;;;;;;;5.25;4.43;;;-0.90;99.90;;;;;;5043660;28;20026;-75
2020/12/27 05:16:57;;;;;;;;;;;-1.00;99.90;;;;;;5042559;28;20030;-74
2020/12/27 05:19:23;;;;;;;8.95;4.80;;;-0.90;99.90;;;;;;5042335;28;19937;-75
2020/12/27 05:21:49;;;;;;;5.80;4.78;;;-0.90;99.90;;;;;;5023772;28;20125;-73
2020/12/27 05:24:17;;;;;;;5.90;4.80;;;-0.80;99.90;;;;;;5043954;28;20053;-74
2020/12/27 05:26:42;;;;;;;6.03;4.47;;;-0.80;99.90;;;;;;5027031;28;20058;-74
2020/12/27 05:29:11;;;;;;;6.38;4.65;;;-0.80;99.90;;;;;;5040368;28;20029;-75
2020/12/27 05:31:38;;;;;;;5.65;4.40;;;-0.80;99.90;;;;;;5057370;28;20065;-75
2020/12/27 05:34:05;;;;;;;5.22;4.65;;;-0.70;99.90;;;;;;5057018;28;20023;-76
2020/12/27 05:36:31;;;;;;;5.30;4.47;;;-0.70;99.90;;;;;;5055206;28;20136;-73
2020/12/27 05:38:58;;;;;;;5.60;4.40;;;-0.70;99.90;;;;;;5027425;28;20013;-74
2020/12/27 05:41:28;;;;;;;4.63;4.03;;;-0.70;99.90;;;;;;5028479;28;20086;-73
2020/12/27 05:43:57;;;;;;;;;;;-0.60;99.90;;;;;;5049078;28;20018;-73
2020/12/27 05:46:24;;;;;;;6.60;5.13;;;-0.60;99.90;;;;;;5043356;28;19952;-75
2020/12/27 05:48:53;;;;;;;6.13;4.47;;;-0.60;99.90;;;;;;5042506;28;20041;-75
2020/12/27 05:51:21;;;;;;;4.75;4.18;;;-0.50;99.90;;;;;;5044666;28;20032;-75
2020/12/27 05:53:50;;;;;;;5.43;3.72;;;-0.60;99.90;;;;;;5041818;28;20018;-75
2020/12/27 05:56:18;;;;;;;6.40;4.53;;;-0.50;99.90;;;;;;5024049;28;20029;-74
2020/12/27 05:58:44;;;;;;;5.38;4.20;;;-0.50;99.90;;;;;;5026833;28;20277;-73
2020/12/27 06:01:20;;;;;;;5.50;4.28;;;-0.50;99.90;;;;;;5039062;28;20021;-76
2020/12/27 06:04:04;;;;;;;5.85;5.03;;;-0.40;99.90;;;;;;5038141;28;20104;-75
2020/12/27 06:07:03;;;;;;;6.95;3.92;;;-0.40;99.90;;;;;;5033332;28;20417;-75
2020/12/27 06:09:52;;;;;;;5.65;4.93;;;-0.30;99.90;;;;;;5032905;28;20037;-74
2020/12/27 06:12:21;;;;;;;6.03;4.53;;;-0.30;99.90;;;;;;5032609;28;20025;-75
2020/12/27 06:15:07;;;;;;;6.07;4.53;;;-0.30;99.90;;;;;;5018551;28;20120;-75
2020/12/27 06:17:51;;;;;;;6.03;4.65;;;-0.30;99.90;;;;;;5017970;28;20048;-75
2020/12/27 06:20:21;;;;;;;4.72;3.95;;;-0.30;99.90;;;;;;5016660;28;20117;-74
2020/12/27 06:22:51;;;;;;;5.47;4.22;;;-0.20;99.90;;;;;;5027703;28;20029;-75
2020/12/27 06:25:18;;;;;;;6.40;4.80;;;-0.20;99.90;;;;;;5036401;28;20021;-74
2020/12/27 06:27:45;;;;;;;7.40;5.70;;;-0.20;99.90;;;;;;5019180;28;20025;-75
2020/12/27 06:30:25;;;;;;;5.68;4.60;;;-0.20;99.90;;;;;;5036610;28;20029;-75
2020/12/27 06:32:58;;;;;;;5.82;3.95;;;-0.20;99.90;;;;;;5036779;28;20076;-75
2020/12/27 06:35:32;;;;;;;5.03;4.35;;;-0.10;99.90;;;;;;5036943;28;20029;-74
2020/12/27 06:37:58;;;;;;;7.72;5.00;;;-0.20;99.90;;;;;;5036285;28;20408;-76
2020/12/27 06:40:24;;;;;;;6.25;4.68;;;-0.10;99.90;;;;;;5036303;28;20088;-75
2020/12/27 06:42:50;;;;;;;8.02;4.88;;;-0.10;99.90;;;;;;5036137;28;20532;-74
2020/12/27 06:45:29;;;;;;;6.78;4.03;;;-0.10;99.90;;;;;;5036253;28;20029;-74
2020/12/27 06:47:58;;;;;;;6.72;4.68;;;0.00;99.90;;;;;;5035861;28;20030;-75
2020/12/27 06:50:27;;;;;;;5.40;4.50;;;0.00;99.90;;;;;;5036418;28;20129;-75
2020/12/27 06:52:53;;;;;;;6.15;4.82;;;0.00;99.90;;;;;;5035419;28;20037;-75
2020/12/27 06:55:49;;;;;;;5.28;3.80;;;0.00;99.90;;;;;;5036151;28;20068;-75
2020/12/27 06:58:23;;;;;;;5.90;4.88;;;0.00;99.90;;;;;;5000829;28;20061;-75
2020/12/27 07:00:49;;;;;;;8.23;4.63;;;-0.10;99.90;;;;;;5018364;28;20021;-75
2020/12/27 07:03:20;;;;;;;6.55;3.90;;;0.00;99.90;;;;;;5035269;28;20044;-75
2020/12/27 07:05:48;;;;;;;7.15;3.85;;;0.00;99.90;;;;;;5035725;28;20028;-75
2020/12/27 07:08:37;;;;;;;4.80;4.30;;;0.10;99.90;;;;;;5017668;28;20029;-74
2020/12/27 07:11:06;;;;;;;5.03;3.83;;;0.00;99.90;;;;;;5015743;28;20042;-76
2020/12/27 07:13:45;;;;;;;6.30;3.80;;;0.00;99.90;;;;;;4998873;28;20022;-76
2020/12/27 07:16:15;;;;;;;6.63;3.67;;;0.00;99.90;;;;;;4998230;28;20033;-75
2020/12/27 07:18:43;;;;;;;6.35;3.88;;;0.00;99.90;;;;;;5015874;28;20017;-76
2020/12/27 07:21:13;;;;;;;5.50;3.90;;;0.00;99.90;;;;;;5018000;28;20531;-75
2020/12/27 07:23:46;;;;;;;7.72;4.22;;;0.00;99.90;;;;;;5034909;28;20064;-75
2020/12/27 07:26:12;;;;;;;7.57;3.75;;;0.10;99.90;;;;;;5034516;28;20362;-75
2020/12/27 07:28:38;;;;;;;4.28;3.88;;;0.10;99.90;;;;;;5035456;28;20048;-75
2020/12/27 07:31:05;;;;;;;5.07;3.60;;;0.10;99.90;;;;;;5035127;28;20061;-74
2020/12/27 07:33:37;;;;;;;5.40;4.00;;;0.00;99.90;;;;;;5021294;28;20108;-74
2020/12/27 07:36:10;;;;;;;5.18;4.65;;;0.10;99.90;;;;;;5019178;28;20021;-74
2020/12/27 07:38:43;;;;;;;5.82;4.40;;;0.10;99.90;;;;;;5036331;28;20025;-75
2020/12/27 07:41:08;;;;;;;5.05;4.50;;;0.10;99.90;;;;;;5034963;28;20021;-74
2020/12/27 07:43:34;;;;;;;5.90;4.05;;;0.10;99.90;;;;;;5035894;28;20028;-75
2020/12/27 07:46:13;;;;;;;6.00;3.95;;;0.20;99.90;;;;;;5035387;28;20022;-74
2020/12/27 07:48:42;;;;;;;9.68;4.35;;;0.20;99.90;;;;;;5037775;28;20343;-74
2020/12/27 07:51:15;;;;;;;7.00;4.03;;;0.10;99.90;;;;;;5034775;28;20029;-75
2020/12/27 07:53:54;;;;;;;4.72;4.13;;;0.20;99.90;;;;;;5016869;28;20029;-75
2020/12/27 07:56:22;;;;;;;6.65;4.15;;;0.30;99.90;;;;;;5034919;28;20477;-75
2020/12/27 07:59:08;;;;;;;4.90;3.90;;;0.20;99.90;;;;;;5035732;28;20040;-76
2020/12/27 08:01:35;;;;;;;4.43;3.90;;;0.20;99.90;;;;;;5044843;28;20025;-74
2020/12/27 08:04:03;;;;;;;4.80;4.28;;;0.30;99.90;;;;;;5039367;28;20113;-74
2020/12/27 08:06:30;;;;;;;4.55;3.40;;;0.20;99.90;;;;;;5034601;28;20025;-74
2020/12/27 08:09:00;;;;;;;7.43;4.47;;;0.30;99.90;;;;;;5034070;28;20493;-74
2020/12/27 08:11:26;;;;;;;8.03;4.17;;;0.40;99.90;;;;;;5036067;28;20040;-75
2020/12/27 08:14:00;;;;;;;6.20;3.58;;;0.40;99.90;;;;;;5035274;28;20052;-74
2020/12/27 08:16:28;;;;;;;8.35;4.30;;;0.20;99.90;;;;;;5016890;28;20090;-74
2020/12/27 08:19:08;;;;;;;7.00;3.47;;;0.20;99.90;;;;;;5035431;28;20021;-75
2020/12/27 08:21:35;;;;;;;6.30;4.20;;;0.30;99.90;;;;;;5018824;28;20017;-72
2020/12/27 08:24:06;;;;;;;7.72;4.32;;;0.40;99.90;;;;;;5041626;28;20025;-74
2020/12/27 08:26:34;;;;;;;6.70;4.03;;;0.40;99.90;;;;;;5039502;28;20018;-74
2020/12/27 08:29:23;;;;;;;6.68;4.07;;;0.30;99.90;;;;;;5015711;28;20083;-75
2020/12/27 08:31:51;;;;;;;4.95;3.90;;;0.50;99.90;;;;;;5034389;28;20096;-75
2020/12/27 08:34:24;;;;;;;5.03;3.65;;;0.50;99.90;;;;;;5034628;28;20029;-74
2020/12/27 08:36:55;;;;;;;4.95;4.25;;;0.60;99.90;;;;;;5035812;28;20104;-75
2020/12/27 08:39:45;;;;;;;4.13;3.53;;;0.70;99.90;;;;;;5035142;28;20024;-75
2020/12/27 08:42:29;;;;;;;7.18;4.28;;;0.60;99.90;;;;;;5017817;28;20033;-74
2020/12/27 08:45:04;;;;;;;5.50;3.97;;;0.60;99.90;;;;;;5035481;28;20143;-74
2020/12/27 08:48:09;;;;;;;4.57;3.80;;;0.70;99.90;;;;;;5035629;28;20369;-74
2020/12/27 08:50:38;;;;;;;6.78;4.32;;;0.80;99.90;;;;;;5034233;28;20032;-74
2020/12/27 08:53:08;;;;;;;5.80;3.75;;;0.80;99.90;;;;;;5033933;28;20026;-74
2020/12/27 08:55:33;;;;;;;6.10;3.27;;;0.70;99.90;;;;;;5016517;28;20099;-74
2020/12/27 08:58:00;;;;;;;5.00;4.05;;;0.70;99.90;;;;;;5034924;28;20370;-74
2020/12/27 09:00:32;;;;;;;4.57;3.33;;;0.80;99.90;;;;;;5036412;28;20039;-74
2020/12/27 09:02:59;;;;;;;7.13;4.28;;;0.80;99.90;;;;;;5035461;28;20025;-73
2020/12/27 09:05:32;;;;;;;4.20;3.80;;;0.80;99.90;;;;;;5036729;28;20106;-74
2020/12/27 09:07:59;;;;;;;7.20;3.92;;;0.70;99.90;;;;;;5018952;28;21884;-76
2020/12/27 09:10:27;;;;;;;4.35;3.95;;;0.90;99.90;;;;;;5035873;28;20598;-75
2020/12/27 09:13:08;;;;;;;5.85;4.47;;;0.90;99.90;;;;;;5023843;28;20048;-74
2020/12/27 09:15:38;;;;;;;5.55;3.92;;;1.00;99.90;;;;;;5038515;28;20044;-75
2020/12/27 09:18:08;;;;;;;10.02;4.03;;;1.00;99.90;;;;;;5041374;28;20029;-73
2020/12/27 09:20:36;;;;;;;4.90;4.15;;;1.10;99.90;;;;;;5039222;28;20076;-76
2020/12/27 09:23:15;;;;;;;6.20;4.85;;;1.10;99.90;;;;;;5019266;28;20022;-75
2020/12/27 09:25:44;;;;;;;3.90;3.33;;;1.10;99.90;;;;;;5036494;28;20022;-74
2020/12/27 09:28:21;;;;;;;6.18;4.47;;;1.30;99.90;;;;;;5038002;28;20485;-75
2020/12/27 09:31:00;;;;;;;4.70;3.80;;;1.30;99.90;;;;;;5019972;28;20508;-75
2020/12/27 09:33:27;;;;;;;6.30;3.50;;;1.50;99.90;;;;;;5036648;28;20034;-76
2020/12/27 09:36:00;;;;;;;4.55;4.10;;;1.60;99.90;;;;;;5019321;28;20057;-75
2020/12/27 09:38:28;;;;;;;9.70;4.30;;;1.50;99.90;;;;;;5017082;28;20497;-76
2020/12/27 09:41:02;;;;;;;5.32;3.97;;;1.50;99.90;;;;;;5035419;28;20025;-75
2020/12/27 09:43:27;;;;;;;4.97;3.67;;;1.50;99.90;;;;;;5018324;28;20052;-75
2020/12/27 09:45:53;;;;;;;4.80;3.53;;;1.70;99.90;;;;;;5035235;28;20029;-75
2020/12/27 09:48:18;;;;;;;4.72;4.05;;;1.60;99.90;;;;;;5035750;28;20112;-76
2020/12/27 09:50:44;;;;;;;7.63;4.20;;;1.50;99.90;;;;;;5037655;28;20033;-75
2020/12/27 09:53:18;;;;;;;5.03;4.07;;;1.60;99.90;;;;;;5039177;28;20029;-75
2020/12/27 09:55:44;;;;;;;5.68;4.03;;;1.70;99.90;;;;;;5021765;28;20021;-73
2020/12/27 09:58:12;;;;;;;3.78;3.38;;;1.70;99.90;;;;;;5020869;28;20021;-75
2020/12/27 10:00:38;;;;;;;5.63;3.90;;;1.70;99.90;;;;;;5039408;28;20041;-75
2020/12/27 10:03:04;;;;;;;6.30;3.50;;;1.70;99.90;;;;;;5040189;28;20053;-76
2020/12/27 10:05:29;;;;;;;4.53;3.55;;;1.80;99.90;;;;;;5042651;28;20033;-76
2020/12/27 10:07:55;;;;;;;5.05;3.70;;;1.80;99.90;;;;;;5031673;28;20060;-75
2020/12/27 10:10:20;;;;;;;5.57;3.40;;;1.80;99.90;;;;;;5033932;28;20037;-74
2020/12/27 10:12:46;;;;;;;5.25;3.40;;;2.30;99.90;;;;;;5036951;28;20022;-73
2020/12/27 10:15:11;;;;;;;4.88;3.85;;;2.10;99.90;;;;;;5056288;28;20022;-73
2020/12/27 10:17:37;;;;;;;4.20;3.47;;;2.10;99.90;;;;;;5055670;28;20040;-73
2020/12/27 10:20:05;;;;;;;4.28;3.72;;;2.10;99.90;;;;;;5055437;28;20025;-73
2020/12/27 10:22:30;;;;;;;5.30;3.75;;;2.00;99.90;;;;;;5055361;28;20022;-75
2020/12/27 10:24:56;;;;;;;5.15;3.22;;;2.00;99.90;;;;;;5037401;28;20032;-73
2020/12/27 10:27:22;;;;;;;3.83;3.42;;;2.10;99.90;;;;;;5055593;28;20021;-73
2020/12/27 10:29:48;;;;;;;4.65;3.55;;;2.20;99.90;;;;;;5055524;28;20092;-74
2020/12/27 10:32:14;;;;;;;4.90;3.88;;;2.10;99.90;;;;;;5054033;28;20377;-74
2020/12/27 10:34:39;;;;;;;5.93;3.58;;;2.00;99.90;;;;;;5053443;28;20026;-73
2020/12/27 10:37:05;;;;;;;6.60;4.22;;;2.10;99.90;;;;;;5055343;28;20044;-74
2020/12/27 10:39:31;;;;;;;4.80;4.30;;;2.30;99.90;;;;;;5054371;28;20009;-73
2020/12/27 10:41:57;;;;;;;5.47;4.43;;;2.10;99.90;;;;;;5056143;28;20013;-73
2020/12/27 10:44:24;;;;;;;6.95;5.30;;;2.20;99.90;;;;;;5050161;28;20029;-75
2020/12/27 10:46:50;;;;;;;6.68;6.03;;;2.40;99.90;;;;;;5044122;28;20412;-72
2020/12/27 10:49:20;;;;;;;6.43;5.72;;;2.20;99.90;;;;;;5050212;28;20100;-74
2020/12/27 10:51:46;;;;;;;8.30;6.45;;;2.20;99.90;;;;;;5034071;28;20599;-73
2020/12/27 10:54:12;;;;;;;8.90;6.65;;;2.20;99.90;;;;;;5054272;28;20037;-73
2020/12/27 10:56:40;;;;;;;10.65;7.00;;;2.30;99.90;;;;;;5014017;28;20033;-75
2020/12/27 10:59:06;;;;;;;9.57;6.72;;;2.40;99.90;;;;;;5012626;28;20665;-75
2020/12/27 11:01:32;;;;;;;9.55;6.68;;;2.40;99.90;;;;;;5031767;28;20041;-75
2020/12/27 11:03:57;;;;;;;7.22;6.22;;;2.40;99.90;;;;;;5029549;28;20075;-74
2020/12/27 11:06:39;;;;;;;7.53;6.28;;;2.30;99.90;;;;;;5048097;28;20037;-76
2020/12/27 11:09:05;;;;;;;6.70;5.93;;;2.20;99.90;;;;;;5046209;28;20034;-74
2020/12/27 11:11:30;;;;;;;7.05;6.25;;;2.10;99.90;;;;;;5020495;28;20079;-73
2020/12/27 11:13:56;;;;;;;9.73;6.85;;;2.10;99.90;;;;;;5036800;28;20036;-75
2020/12/27 11:16:22;;;;;;;7.55;6.57;;;2.10;99.90;;;;;;5036786;28;20672;-75
2020/12/27 11:18:47;;;;;;;8.20;5.90;;;2.20;99.90;;;;;;5036986;28;20032;-70
2020/12/27 11:21:13;;;;;;;7.72;6.93;;;2.30;99.90;;;;;;5036086;28;20100;-71
2020/12/27 11:23:38;;;;;;;11.40;7.72;;;2.30;99.90;;;;;;5036503;28;20026;-73
2020/12/27 11:26:04;;;;;;;9.02;6.75;;;2.20;99.90;;;;;;5019273;28;20033;-73
2020/12/27 11:28:30;;;;;;;7.60;6.40;;;2.20;99.90;;;;;;5039036;28;20025;-73
2020/12/27 11:30:55;;;;;;;7.95;6.28;;;2.20;99.90;;;;;;5038721;28;20048;-73
2020/12/27 11:33:21;;;;;;;9.45;7.00;;;2.20;99.90;;;;;;5036826;28;20046;-72
2020/12/27 11:35:47;;;;;;;8.95;6.22;;;2.10;99.90;;;;;;5037883;28;20482;-72
2020/12/27 11:38:13;;;;;;;8.95;7.10;;;2.20;99.90;;;;;;5021481;28;20029;-73
2020/12/27 11:40:38;;;;;;;7.63;6.00;;;2.10;99.90;;;;;;5037682;28;20025;-72
2020/12/27 11:43:04;;;;;;;8.68;6.90;;;2.10;99.90;;;;;;5036253;28;20052;-74
2020/12/27 11:45:29;;;;;;;8.73;6.28;;;2.10;99.90;;;;;;5036125;28;20073;-72
2020/12/27 11:47:55;;;;;;;9.25;7.30;;;2.20;99.90;;;;;;5035808;28;20037;-72
2020/12/27 11:50:20;;;;;;;7.45;6.57;;;2.10;99.90;;;;;;5036025;28;20261;-73
2020/12/27 11:52:46;;;;;;;7.57;6.13;;;2.00;99.90;;;;;;5035787;28;20068;-73
2020/12/27 11:55:12;;;;;;;8.02;6.80;;;2.10;99.90;;;;;;5037614;28;20022;-74
2020/12/27 11:57:37;;;;;;;9.48;6.93;;;2.20;99.90;;;;;;5018623;28;20060;-75
2020/12/27 12:00:05;;;;;;;10.00;6.97;;;2.20;99.90;;;;;;5018837;28;20549;-75
2020/12/27 12:02:30;;;;;;;7.03;6.00;;;2.20;99.90;;;;;;5036924;28;20029;-74
2020/12/27 12:04:56;;;;;;;7.00;5.60;;;2.30;99.90;;;;;;5037451;28;20021;-75
2020/12/27 12:07:22;;;;;;;6.60;5.55;;;2.40;99.90;;;;;;5039379;28;20029;-74
2020/12/27 12:09:47;;;;;;;8.00;5.85;;;2.30;99.90;;;;;;5038273;28;20045;-74
2020/12/27 12:12:13;;;;;;;7.45;6.05;;;2.30;99.90;;;;;;5019765;28;20030;-73
2020/12/27 12:14:39;;;;;;;6.80;6.00;;;2.50;99.90;;;;;;5020306;28;20047;-75
2020/12/27 12:17:04;;;;;;;6.97;6.28;;;2.30;99.90;;;;;;5037892;28;20462;-74
2020/12/27 12:19:30;;;;;;;8.57;6.18;;;2.30;99.90;;;;;;5018287;28;20038;-73
2020/12/27 12:21:55;;;;;;;6.93;6.13;;;2.20;99.90;;;;;;5034834;28;20085;-73
2020/12/27 12:24:24;;;;;;;7.90;6.22;;;2.40;99.90;;;;;;5034597;28;20032;-73
2020/12/27 12:26:50;;;;;;;11.25;6.75;;;2.50;99.90;;;;;;5035001;28;20025;-74
2020/12/27 12:29:16;;;;;;;7.53;5.90;;;2.60;99.90;;;;;;5017183;28;20033;-73
2020/12/27 12:31:41;;;;;;;7.45;5.63;;;2.60;99.90;;;;;;5034536;28;20021;-72
2020/12/27 12:34:07;;;;;;;7.45;5.47;;;2.70;99.90;;;;;;5035227;28;20022;-73
2020/12/27 12:36:33;;;;;;;7.50;5.60;;;2.60;99.90;;;;;;5016767;28;20032;-73
2020/12/27 12:38:59;;;;;;;7.57;5.68;;;2.70;99.90;;;;;;5035542;28;20500;-74
2020/12/27 12:41:30;;;;;;;6.13;5.50;;;2.50;99.90;;;;;;5041533;28;20017;-72
2020/12/27 12:43:56;;;;;;;6.75;5.93;;;2.80;99.90;;;;;;5040063;28;20001;-75
2020/12/27 12:46:22;;;;;;;8.77;5.95;;;2.90;99.90;;;;;;5037562;28;20029;-75
2020/12/27 12:48:49;;;;;;;7.22;6.47;;;2.90;99.90;;;;;;5036061;28;20048;-74
2020/12/27 12:51:15;;;;;;;8.32;6.32;;;2.90;99.90;;;;;;5035064;28;20028;-77
2020/12/27 12:53:41;;;;;;;7.78;5.93;;;2.90;99.90;;;;;;5035389;28;20021;-74
2020/12/27 12:56:10;;;;;;;6.93;5.97;;;2.90;99.90;;;;;;5033743;28;20032;-75
2020/12/27 12:58:36;;;;;;;7.63;6.22;;;2.70;99.90;;;;;;5034868;28;20037;-74